logo dgac
Martes 16 de Julio del 2019
Buscar por aerodromo o helipuerto
Ingrese nombre de aeródromo, localidad o designador OACI:
METAR del 17-07-2019 a las 01:00 UTC
METAR SCVD 170100Z 36010KT 6000 -RA SCT013 BKN015 OVC022 12/11 Q1015
Viento: dirección 360 grados, velocidad 10 nudos
Visibilidad: 6000 metros
Débil Lluvia
Nubes: Nubosidad parcial a 1300 pies sobre el nivel del aeródromo
Nubes: Nublado a 1500 pies sobre el nivel del aeródromo
Nubes: Cubierto a 2200 pies sobre el nivel del aeródromo
Temperatura: 12 °C
Rocío: 11 °C
Humedad_relativa: 94%
Presión: 1015 hPa
METAR del 17-07-2019 a las 00:00 UTC
METAR SCVD 170000Z 36011KT 8000 -RA SCT010 BKN013 OVC020 12/11 Q1016
Viento: dirección 360 grados, velocidad 11 nudos
Visibilidad: 8000 metros
Débil Lluvia
Nubes: Nubosidad parcial a 1000 pies sobre el nivel del aeródromo
Nubes: Nublado a 1300 pies sobre el nivel del aeródromo
Nubes: Cubierto a 2000 pies sobre el nivel del aeródromo
Temperatura: 12 °C
Rocío: 11 °C
Humedad_relativa: 94%
Presión: 1016 hPa
METAR del 16-07-2019 a las 23:00 UTC
METAR SCVD 162300Z 35010KT 9000 -RA BKN013 OVC020 11/11 Q1015
Viento: dirección 350 grados, velocidad 10 nudos
Visibilidad: 9000 metros
Débil Lluvia
Nubes: Nublado a 1300 pies sobre el nivel del aeródromo
Nubes: Cubierto a 2000 pies sobre el nivel del aeródromo
Temperatura: 11 °C
Rocío: 11 °C
Humedad_relativa: 100%
Presión: 1015 hPa
SPECI del 16-07-2019 a las 22:16 UTC
SPECI SCVD 162216Z 36010KT 7000 -RA BKN013 OVC020 11/11 Q1015
Viento: dirección 360 grados, velocidad 10 nudos
Visibilidad: 7000 metros
Débil Lluvia
Nubes: Nublado a 1300 pies sobre el nivel del aeródromo
Nubes: Cubierto a 2000 pies sobre el nivel del aeródromo
Temperatura: 11 °C
Rocío: 11 °C
Humedad_relativa: 100%
Presión: 1015 hPa
METAR del 16-07-2019 a las 22:00 UTC
METAR SCVD 162200Z 36009KT 4000 -RA BKN013 OVC020 11/11 Q1015
Viento: dirección 360 grados, velocidad 9 nudos
Visibilidad: 4000 metros
Débil Lluvia
Nubes: Nublado a 1300 pies sobre el nivel del aeródromo
Nubes: Cubierto a 2000 pies sobre el nivel del aeródromo
Temperatura: 11 °C
Rocío: 11 °C
Humedad_relativa: 100%
Presión: 1015 hPa
METAR del 16-07-2019 a las 21:00 UTC
METAR SCVD 162100Z 01009KT 330V030 4000 -RA BKN012 OVC020 11/11 Q1014
Viento: dirección 010 grados, velocidad 9 nudos
Viento con dirección variable entre 330 y 030 grados
Visibilidad: 4000 metros
Débil Lluvia
Nubes: Nublado a 1200 pies sobre el nivel del aeródromo
Nubes: Cubierto a 2000 pies sobre el nivel del aeródromo
Temperatura: 11 °C
Rocío: 11 °C
Humedad_relativa: 100%
Presión: 1014 hPa
METAR del 16-07-2019 a las 21:00 UTC
METAR SCVD 162100Z 01009KT 330V030 4000 -RA BKN012 OVC020 11/11 Q1014
Viento: dirección 010 grados, velocidad 9 nudos
Viento con dirección variable entre 330 y 030 grados
Visibilidad: 4000 metros
Débil Lluvia
Nubes: Nublado a 1200 pies sobre el nivel del aeródromo
Nubes: Cubierto a 2000 pies sobre el nivel del aeródromo
Temperatura: 11 °C
Rocío: 11 °C
Humedad_relativa: 100%
Presión: 1014 hPa
METAR del 16-07-2019 a las 20:00 UTC
METAR SCVD 162000Z 03011KT 5000 -RA BKN011 OVC020 11/11 Q1014
Viento: dirección 030 grados, velocidad 11 nudos
Visibilidad: 5000 metros
Débil Lluvia
Nubes: Nublado a 1100 pies sobre el nivel del aeródromo
Nubes: Cubierto a 2000 pies sobre el nivel del aeródromo
Temperatura: 11 °C
Rocío: 11 °C
Humedad_relativa: 100%
Presión: 1014 hPa
METAR del 16-07-2019 a las 20:00 UTC
METAR SCVD 162000Z 03011KT 5000 -RA BKN011 OVC020 11/11 Q1014
Viento: dirección 030 grados, velocidad 11 nudos
Visibilidad: 5000 metros
Débil Lluvia
Nubes: Nublado a 1100 pies sobre el nivel del aeródromo
Nubes: Cubierto a 2000 pies sobre el nivel del aeródromo
Temperatura: 11 °C
Rocío: 11 °C
Humedad_relativa: 100%
Presión: 1014 hPa
METAR del 16-07-2019 a las 19:00 UTC
METAR SCVD 161900Z 02008KT 350V060 8000 -RA BKN011 OVC020 11/10 Q1014
Viento: dirección 020 grados, velocidad 8 nudos
Viento con dirección variable entre 350 y 060 grados
Visibilidad: 8000 metros
Débil Lluvia
Nubes: Nublado a 1100 pies sobre el nivel del aeródromo
Nubes: Cubierto a 2000 pies sobre el nivel del aeródromo
Temperatura: 11 °C
Rocío: 10 °C
Humedad_relativa: 94%
Presión: 1014 hPa